Terminal Aerodrome Forecast
Issued by NWS

Home | Current Version | Previous Version | Text Only | Print | Product List | Glossary On
Versions: 1 2 3 4 5 6 7 8 9 10 11 12 13 14 15 16 17 18 19 20 21 22 23 24 25
075
FTUS46 KSEW 200902 AAA
TAFSEA
TAF AMD
KSEA 200902Z 2009/2112 08008KT P6SM SCT050 BKN200
     FM202000 06007KT P6SM -RA OVC050
     FM210100 08007KT P6SM SCT050 BKN080=

USA.gov is the U.S. government's official web portal to all federal, state and local government web resources and services.